Time;durP1;ratioP1;P1;durP2;ratioP2;P2;SDS_P1;SDS_P2;PMS_P1;PMS_P2;Temp;Humidity;BMP_temperature;BMP_pressure;BME280_temperature;BME280_humidity;BME280_pressure;Samples;Min_cycle;Max_cycle;Signal;HPM_P1;HPM_P2
2022/01/18 00:00:15;;;;;;;6.20;5.53;;;;;;;;;;5042961;28;20505;-60
2022/01/18 00:02:41;;;;;;;;;;;;;;;;;;5039681;28;20111;-60
2022/01/18 00:05:13;;;;;;;5.57;5.05;;;;;;;;;;5040392;28;20294;-60
2022/01/18 00:07:38;;;;;;;8.43;6.95;;;;;;;;;;5042323;28;20057;-60
2022/01/18 00:10:04;;;;;;;5.80;5.00;;;;;;;;;;5040716;28;20470;-61
2022/01/18 00:12:55;;;;;;;5.47;4.97;;;;;;;;;;5041934;28;20032;-61
2022/01/18 00:20:28;;;;;;;8.55;6.97;;;;;;;;;;5040184;28;20098;-61
2022/01/18 00:22:54;;;;;;;6.05;5.45;;;;;;;;;;5041581;28;20058;-61
2022/01/18 00:25:19;;;;;;;8.43;5.57;;;;;;;;;;5041998;28;20530;-61
2022/01/18 00:27:45;;;;;;;7.38;6.68;;;;;;;;;;5040591;28;20411;-61
2022/01/18 00:33:19;;;;;;;7.30;6.57;;;;;;;;;;5041973;28;20130;-61
2022/01/18 00:35:46;;;;;;;6.13;5.40;;;;;;;;;;5040140;28;20037;-60
2022/01/18 00:38:30;;;;;;;6.43;5.82;;;;;;;;;;5037008;28;20025;-60
2022/01/18 00:40:56;;;;;;;7.15;6.18;;;;;;;;;;5040161;28;20024;-59
2022/01/18 00:43:22;;;;;;;9.48;5.93;;;;;;;;;;5037985;28;20336;-60
2022/01/18 00:45:47;;;;;;;6.35;5.68;;;;;;;;;;5042061;28;20123;-60
2022/01/18 00:48:13;;;;;;;6.05;5.45;;;;;;;;;;5041407;28;20456;-59
2022/01/18 00:50:38;;;;;;;6.30;5.20;;;;;;;;;;5040882;28;20052;-60
2022/01/18 00:53:11;;;;;;;6.03;5.43;;;;;;;;;;5039779;28;20029;-60
2022/01/18 00:55:48;;;;;;;7.18;5.68;;;;;;;;;;5039682;28;20387;-61
2022/01/18 00:58:14;;;;;;;5.97;5.32;;;;;;;;;;5038844;28;20056;-60
2022/01/18 01:00:39;;;;;;;6.18;4.88;;;;;;;;;;5056037;28;20448;-60
2022/01/18 01:03:05;;;;;;;10.30;6.35;;;;;;;;;;5040133;28;20227;-61
2022/01/18 01:05:30;;;;;;;6.15;5.55;;;;;;;;;;5040253;28;20056;-60
2022/01/18 01:07:56;;;;;;;6.35;5.55;;;;;;;;;;5040218;28;20029;-61
2022/01/18 01:10:22;;;;;;;5.93;5.32;;;;;;;;;;5041433;28;20039;-61
2022/01/18 01:12:47;;;;;;;8.23;6.15;;;;;;;;;;5036884;28;20491;-61
2022/01/18 01:15:15;;;;;;;11.57;5.95;;;;;;;;;;5036061;28;20040;-61
2022/01/18 01:18:14;;;;;;;7.68;6.18;;;;;;;;;;5037637;28;20065;-61
2022/01/18 01:42:05;;;;;;;7.25;6.55;;;;;;;;;;5039201;28;20043;-61
2022/01/18 01:44:44;;;;;;;7.65;6.95;;;;;;;;;;5040171;28;20370;-61
2022/01/18 01:47:12;;;;;;;7.72;6.60;;;;;;;;;;5035766;28;20040;-61
2022/01/18 01:49:39;;;;;;;5.47;4.97;;;;;;;;;;5036082;28;20060;-60
2022/01/18 01:52:07;;;;;;;9.25;6.18;;;;;;;;;;5040208;28;20038;-61
2022/01/18 01:54:32;;;;;;;6.70;6.00;;;;;;;;;;5038238;28;20030;-61
2022/01/18 01:56:58;;;;;;;9.55;6.82;;;;;;;;;;5035551;28;20079;-60
2022/01/18 01:59:23;;;;;;;5.30;4.78;;;;;;;;;;5038359;28;20471;-61
2022/01/18 02:01:49;;;;;;;8.02;4.90;;;;;;;;;;5037601;28;20041;-60
2022/01/18 02:04:15;;;;;;;6.15;5.55;;;;;;;;;;5037674;28;20039;-61
2022/01/18 02:06:40;;;;;;;8.00;6.35;;;;;;;;;;5038800;28;20037;-61
2022/01/18 02:09:07;;;;;;;6.05;5.45;;;;;;;;;;5039421;28;20350;-60
2022/01/18 02:11:32;;;;;;;8.05;7.25;;;;;;;;;;5038618;28;20127;-61
2022/01/18 02:13:59;;;;;;;5.90;5.38;;;;;;;;;;5041088;28;20458;-60
2022/01/18 02:21:52;;;;;;;6.80;5.95;;;;;;;;;;5037185;28;20108;-59
2022/01/18 02:24:20;;;;;;;7.68;6.90;;;;;;;;;;5039103;28;20124;-58
2022/01/18 02:26:45;;;;;;;11.93;6.00;;;;;;;;;;5040761;28;20041;-59
2022/01/18 02:29:12;;;;;;;7.07;6.45;;;;;;;;;;5035923;28;20025;-59
2022/01/18 02:31:38;;;;;;;6.65;6.03;;;;;;;;;;5034082;28;20144;-59
2022/01/18 02:34:15;;;;;;;6.45;5.85;;;;;;;;;;5037089;28;20037;-59
2022/01/18 02:36:42;;;;;;;4.55;4.13;;;;;;;;;;5039337;28;20045;-59
2022/01/18 02:39:08;;;;;;;7.35;6.10;;;;;;;;;;5040973;28;20095;-59
2022/01/18 02:41:34;;;;;;;8.68;6.47;;;;;;;;;;5038921;28;20037;-59
2022/01/18 02:44:11;;;;;;;6.30;5.70;;;;;;;;;;5038559;28;20130;-59
2022/01/18 02:46:38;;;;;;;7.15;6.43;;;;;;;;;;5040572;28;20768;-59
2022/01/18 02:49:05;;;;;;;6.72;5.90;;;;;;;;;;5042281;28;20037;-59
2022/01/18 02:51:32;;;;;;;7.07;6.35;;;;;;;;;;5041706;28;20036;-59
2022/01/18 02:54:01;;;;;;;7.30;6.60;;;;;;;;;;5041267;28;20025;-59
2022/01/18 02:56:33;;;;;;;6.22;5.63;;;;;;;;;;5045332;28;20043;-59
2022/01/18 02:59:19;;;;;;;6.03;5.15;;;;;;;;;;5043240;28;20025;-59
2022/01/18 03:04:37;;;;;;;7.22;6.40;;;;;;;;;;5042180;28;20520;-59
2022/01/18 03:07:02;;;;;;;8.75;5.88;;;;;;;;;;5039323;28;20035;-59
2022/01/18 03:09:28;;;;;;;8.18;6.30;;;;;;;;;;5041786;28;20037;-59
2022/01/18 03:11:53;;;;;;;6.80;6.15;;;;;;;;;;5040515;28;20497;-59
2022/01/18 03:14:18;;;;;;;6.97;6.25;;;;;;;;;;5043536;28;20052;-59
2022/01/18 03:16:44;;;;;;;7.47;5.47;;;;;;;;;;5044144;28;20106;-59
2022/01/18 03:19:09;;;;;;;8.93;6.60;;;;;;;;;;5037847;28;20029;-59
2022/01/18 03:21:35;;;;;;;5.70;5.13;;;;;;;;;;5040320;28;20037;-59
2022/01/18 03:24:13;;;;;;;6.70;6.05;;;;;;;;;;5041555;28;20029;-59
2022/01/18 03:29:25;;;;;;;6.93;6.22;;;;;;;;;;5042132;28;20057;-59
2022/01/18 03:31:50;;;;;;;5.53;4.88;;;;;;;;;;5041376;28;20033;-59
2022/01/18 03:34:16;;;;;;;6.82;6.22;;;;;;;;;;5041728;28;20052;-59
2022/01/18 03:36:41;;;;;;;12.98;7.20;;;;;;;;;;5040203;28;20470;-59
2022/01/18 03:39:07;;;;;;;6.00;5.43;;;;;;;;;;5035659;28;20069;-59
2022/01/18 03:41:32;;;;;;;6.10;5.60;;;;;;;;;;5041843;28;20147;-59
2022/01/18 03:43:57;;;;;;;6.82;5.93;;;;;;;;;;5046820;28;20041;-59
2022/01/18 03:46:24;;;;;;;6.65;6.05;;;;;;;;;;5040960;28;20084;-59
2022/01/18 03:48:51;;;;;;;7.13;6.53;;;;;;;;;;5040835;28;20025;-59
2022/01/18 03:51:16;;;;;;;7.88;6.55;;;;;;;;;;5048974;28;20096;-59
2022/01/18 03:53:42;;;;;;;7.20;6.57;;;;;;;;;;5046306;28;20048;-59
2022/01/18 03:56:08;;;;;;;5.78;5.18;;;;;;;;;;5040320;28;20038;-59
2022/01/18 03:58:34;;;;;;;6.97;6.15;;;;;;;;;;5041886;28;20377;-59
2022/01/18 04:00:59;;;;;;;7.63;5.80;;;;;;;;;;5039253;28;20478;-59
2022/01/18 04:03:26;;;;;;;6.40;5.78;;;;;;;;;;5039636;28;20068;-59
2022/01/18 04:05:52;;;;;;;7.13;6.32;;;;;;;;;;5037516;28;20171;-59
2022/01/18 04:08:19;;;;;;;6.82;6.15;;;;;;;;;;5043869;28;20041;-59
2022/01/18 04:10:45;;;;;;;6.82;6.03;;;;;;;;;;5040871;28;20029;-59
2022/01/18 04:13:10;;;;;;;6.93;6.22;;;;;;;;;;5043180;28;20025;-59
2022/01/18 04:15:35;;;;;;;10.35;6.18;;;;;;;;;;5044466;28;20021;-59
2022/01/18 04:19:24;;;;;;;7.38;6.68;;;;;;;;;;5038386;28;20104;-59
2022/01/18 04:29:00;;;;;;;7.32;6.63;;;;;;;;;;5039783;28;20132;-59
2022/01/18 04:31:27;;;;;;;6.05;5.28;;;;;;;;;;5040725;28;20041;-59
2022/01/18 04:33:52;;;;;;;8.45;7.38;;;;;;;;;;5042402;28;20144;-59
2022/01/18 04:36:18;;;;;;;7.05;6.35;;;;;;;;;;5039934;28;20120;-59
2022/01/18 04:38:44;;;;;;;12.40;7.53;;;;;;;;;;5037485;28;20039;-59
2022/01/18 04:41:14;;;;;;;7.18;6.47;;;;;;;;;;5040608;28;20515;-59
2022/01/18 04:49:00;;;;;;;5.60;5.10;;;;;;;;;;5038220;28;20064;-59
2022/01/18 04:51:25;;;;;;;7.47;6.32;;;;;;;;;;5039992;28;20504;-59
2022/01/18 04:53:55;;;;;;;13.85;6.15;;;;;;;;;;5039682;28;20048;-59
2022/01/18 04:59:02;;;;;;;6.03;5.43;;;;;;;;;;5039353;28;20029;-59
2022/01/18 05:01:28;;;;;;;7.55;6.82;;;;;;;;;;5038481;28;20124;-59
2022/01/18 05:03:53;;;;;;;8.27;6.90;;;;;;;;;;5043440;28;20186;-59
2022/01/18 05:06:19;;;;;;;9.40;6.82;;;;;;;;;;5044006;28;20693;-59
2022/01/18 05:08:45;;;;;;;9.40;5.97;;;;;;;;;;5037841;28;20039;-59
2022/01/18 05:11:15;;;;;;;6.95;6.15;;;;;;;;;;5034838;28;20091;-59
2022/01/18 05:21:35;;;;;;;5.60;5.10;;;;;;;;;;5039781;28;20040;-59
2022/01/18 05:24:00;;;;;;;6.35;5.72;;;;;;;;;;5039663;28;20752;-59
2022/01/18 05:26:28;;;;;;;6.57;5.97;;;;;;;;;;5040125;28;20036;-59
2022/01/18 05:28:54;;;;;;;6.70;6.07;;;;;;;;;;5040641;28;20037;-59
2022/01/18 05:31:19;;;;;;;7.40;5.75;;;;;;;;;;5039155;28;20123;-59
2022/01/18 05:33:47;;;;;;;9.52;6.03;;;;;;;;;;5037181;28;20025;-59
2022/01/18 05:36:14;;;;;;;6.95;6.15;;;;;;;;;;5038880;28;20047;-59
2022/01/18 05:38:40;;;;;;;8.52;6.55;;;;;;;;;;5039917;28;20057;-59
2022/01/18 05:41:08;;;;;;;7.18;6.47;;;;;;;;;;5037091;28;20451;-59
2022/01/18 05:43:34;;;;;;;7.45;6.68;;;;;;;;;;5037995;28;20041;-59
2022/01/18 05:45:59;;;;;;;7.10;6.40;;;;;;;;;;5036396;28;20029;-59
2022/01/18 05:48:25;;;;;;;6.50;5.90;;;;;;;;;;5037956;28;20215;-59
2022/01/18 05:50:53;;;;;;;8.40;6.93;;;;;;;;;;5041214;28;20032;-59
2022/01/18 05:53:19;;;;;;;8.07;6.20;;;;;;;;;;5037759;28;20037;-59
2022/01/18 05:55:44;;;;;;;8.38;6.95;;;;;;;;;;5038005;28;20090;-59
2022/01/18 05:58:09;;;;;;;6.88;6.18;;;;;;;;;;5037699;28;20036;-60
2022/01/18 06:00:37;;;;;;;8.95;6.60;;;;;;;;;;5038959;28;20032;-59
2022/01/18 06:03:12;;;;;;;6.97;6.28;;;;;;;;;;5037547;28;20028;-58
2022/01/18 06:08:22;;;;;;;7.30;6.55;;;;;;;;;;5037572;28;20067;-59
2022/01/18 06:10:47;;;;;;;7.40;6.60;;;;;;;;;;5036072;28;20041;-59
2022/01/18 06:13:14;;;;;;;6.13;5.53;;;;;;;;;;5037360;28;20056;-59
2022/01/18 06:15:39;;;;;;;7.80;6.30;;;;;;;;;;5038824;28;20033;-59
2022/01/18 06:18:05;;;;;;;11.70;9.98;;;;;;;;;;5036663;28;20183;-59
2022/01/18 06:20:30;;;;;;;7.35;6.65;;;;;;;;;;5035349;28;20037;-60
2022/01/18 06:22:56;;;;;;;6.80;6.07;;;;;;;;;;5038458;28;20037;-58
2022/01/18 06:25:22;;;;;;;7.68;6.63;;;;;;;;;;5037013;28;20029;-60
2022/01/18 06:27:48;;;;;;;7.47;6.80;;;;;;;;;;5040159;28;20083;-60
2022/01/18 06:30:14;;;;;;;8.95;6.18;;;;;;;;;;5037065;28;20501;-59
2022/01/18 06:32:44;;;;;;;8.07;7.32;;;;;;;;;;5038881;28;20038;-59
2022/01/18 06:35:11;;;;;;;13.77;8.65;;;;;;;;;;5037731;28;20032;-59
2022/01/18 06:37:37;;;;;;;13.30;8.15;;;;;;;;;;5041971;28;20033;-59
2022/01/18 06:40:04;;;;;;;10.38;6.90;;;;;;;;;;5037653;28;20383;-59
2022/01/18 06:42:30;;;;;;;8.70;7.60;;;;;;;;;;5034009;28;20052;-59
2022/01/18 06:44:56;;;;;;;7.38;6.68;;;;;;;;;;5039123;28;20036;-59
2022/01/18 06:47:22;;;;;;;10.70;6.85;;;;;;;;;;5040876;28;20037;-59
2022/01/18 06:49:47;;;;;;;7.90;6.97;;;;;;;;;;5039313;28;20099;-59
2022/01/18 06:52:13;;;;;;;8.15;7.35;;;;;;;;;;5035785;28;20029;-59
2022/01/18 06:54:38;;;;;;;9.48;7.47;;;;;;;;;;5036981;28;20037;-58
2022/01/18 06:57:04;;;;;;;8.77;7.72;;;;;;;;;;5041037;28;20021;-58
2022/01/18 06:59:30;;;;;;;9.35;6.55;;;;;;;;;;5037113;28;20033;-58
2022/01/18 07:01:55;;;;;;;8.32;6.95;;;;;;;;;;5038959;28;20052;-58
2022/01/18 07:04:21;;;;;;;15.23;7.57;;;;;;;;;;5035540;28;20021;-59
2022/01/18 07:06:47;;;;;;;10.95;7.65;;;;;;;;;;5038118;28;20129;-59
2022/01/18 07:09:15;;;;;;;8.20;6.72;;;;;;;;;;5037883;28;20033;-59
2022/01/18 07:11:41;;;;;;;8.40;6.50;;;;;;;;;;5036956;28;20041;-60
2022/01/18 07:14:07;;;;;;;12.20;9.45;;;;;;;;;;5035662;28;20041;-61
2022/01/18 07:16:32;;;;;;;9.02;7.68;;;;;;;;;;5038043;28;20735;-62
2022/01/18 07:18:58;;;;;;;10.55;7.10;;;;;;;;;;5037372;28;20048;-60
2022/01/18 07:21:23;;;;;;;11.48;8.15;;;;;;;;;;5037514;28;20156;-61
2022/01/18 07:23:51;;;;;;;8.15;6.13;;;;;;;;;;5034547;28;21145;-62
2022/01/18 07:26:17;;;;;;;7.35;6.07;;;;;;;;;;5036327;28;20033;-61
2022/01/18 07:28:42;;;;;;;9.45;8.45;;;;;;;;;;5039161;28;20678;-61
2022/01/18 07:31:08;;;;;;;8.73;7.50;;;;;;;;;;5038277;28;20040;-60
2022/01/18 07:33:36;;;;;;;7.63;6.82;;;;;;;;;;5042187;28;20102;-60
2022/01/18 07:36:02;;;;;;;7.82;7.03;;;;;;;;;;5040132;28;20040;-60
2022/01/18 07:38:27;;;;;;;8.15;7.35;;;;;;;;;;5041328;28;20087;-60
2022/01/18 07:40:53;;;;;;;9.18;8.27;;;;;;;;;;5042640;28;20032;-59
2022/01/18 07:43:20;;;;;;;10.50;6.82;;;;;;;;;;5044116;28;20047;-61
2022/01/18 07:45:47;;;;;;;5.88;5.35;;;;;;;;;;5042076;28;20090;-61
2022/01/18 07:48:13;;;;;;;8.55;6.95;;;;;;;;;;5038957;28;20037;-61
2022/01/18 07:50:40;;;;;;;8.38;7.47;;;;;;;;;;5042004;28;20051;-60
2022/01/18 07:53:05;;;;;;;8.95;7.55;;;;;;;;;;5039638;28;20052;-60
2022/01/18 07:55:30;;;;;;;9.65;6.78;;;;;;;;;;5040344;28;20459;-60
2022/01/18 07:57:58;;;;;;;10.23;7.97;;;;;;;;;;5037251;28;20409;-60
2022/01/18 08:00:24;;;;;;;11.43;7.22;;;;;;;;;;5040518;28;20027;-61
2022/01/18 08:02:49;;;;;;;11.25;8.52;;;;;;;;;;5040279;28;20099;-60
2022/01/18 08:05:15;;;;;;;12.98;7.80;;;;;;;;;;5041398;28;20029;-61
2022/01/18 08:07:41;;;;;;;9.35;6.88;;;;;;;;;;5040013;28;20037;-60
2022/01/18 08:10:08;;;;;;;13.90;7.18;;;;;;;;;;5036833;28;20034;-60
2022/01/18 08:12:33;;;;;;;8.50;7.55;;;;;;;;;;5041667;28;20033;-59
2022/01/18 08:15:12;;;;;;;8.98;7.57;;;;;;;;;;5040773;28;20344;-60
2022/01/18 08:17:38;;;;;;;7.82;7.07;;;;;;;;;;5036783;28;20467;-60
2022/01/18 08:20:04;;;;;;;8.10;7.30;;;;;;;;;;5041453;28;20419;-61
2022/01/18 08:22:29;;;;;;;11.25;8.95;;;;;;;;;;5039952;28;20037;-60
2022/01/18 08:24:54;;;;;;;8.57;6.90;;;;;;;;;;5039975;28;20033;-60
2022/01/18 08:27:21;;;;;;;12.88;8.15;;;;;;;;;;5038357;28;20033;-60
2022/01/18 08:29:46;;;;;;;10.55;8.38;;;;;;;;;;5034880;28;20064;-59
2022/01/18 08:32:12;;;;;;;9.50;8.45;;;;;;;;;;5037955;28;20078;-59
2022/01/18 08:34:37;;;;;;;7.68;6.95;;;;;;;;;;5039140;28;20052;-60
2022/01/18 08:37:03;;;;;;;8.82;7.93;;;;;;;;;;5037567;28;20041;-60
2022/01/18 08:39:28;;;;;;;9.70;7.80;;;;;;;;;;5040257;28;20040;-60
2022/01/18 08:41:54;;;;;;;6.95;6.32;;;;;;;;;;5038513;28;20055;-60
2022/01/18 08:44:20;;;;;;;7.22;6.60;;;;;;;;;;5038428;28;20036;-60
2022/01/18 08:46:45;;;;;;;10.68;8.07;;;;;;;;;;5039766;28;20048;-60
2022/01/18 08:49:10;;;;;;;12.02;6.68;;;;;;;;;;5034674;28;20435;-60
2022/01/18 08:51:36;;;;;;;6.78;6.13;;;;;;;;;;5036625;28;20045;-61
2022/01/18 08:54:03;;;;;;;9.27;7.97;;;;;;;;;;5040454;28;20022;-60
2022/01/18 08:56:29;;;;;;;7.72;7.05;;;;;;;;;;5039660;28;20043;-60
2022/01/18 08:58:56;;;;;;;8.15;7.35;;;;;;;;;;5037591;28;20029;-60
2022/01/18 09:01:22;;;;;;;14.85;10.98;;;;;;;;;;5036413;28;20037;-61
2022/01/18 09:03:48;;;;;;;13.27;8.05;;;;;;;;;;5039852;28;20035;-61
2022/01/18 09:06:15;;;;;;;10.25;7.95;;;;;;;;;;5039177;28;20416;-60
2022/01/18 09:08:41;;;;;;;7.32;6.63;;;;;;;;;;5039844;28;20056;-61
2022/01/18 09:11:10;;;;;;;12.90;7.07;;;;;;;;;;5042196;28;20101;-60
2022/01/18 09:13:36;;;;;;;13.75;8.20;;;;;;;;;;5038935;28;20457;-61
2022/01/18 09:16:02;;;;;;;11.77;7.43;;;;;;;;;;5039380;28;20056;-60
2022/01/18 09:18:28;;;;;;;8.50;7.70;;;;;;;;;;5036722;28;20227;-60
2022/01/18 09:20:53;;;;;;;8.35;7.25;;;;;;;;;;5038764;28;20116;-60
2022/01/18 09:23:19;;;;;;;10.93;7.93;;;;;;;;;;5043087;28;20114;-60
2022/01/18 09:25:44;;;;;;;8.82;7.15;;;;;;;;;;5040153;28;20029;-60
2022/01/18 09:28:10;;;;;;;8.23;6.63;;;;;;;;;;5037106;28;20105;-60
2022/01/18 09:30:36;;;;;;;8.73;6.97;;;;;;;;;;5044995;28;20079;-60
2022/01/18 09:33:06;;;;;;;10.93;8.10;;;;;;;;;;5039197;28;20347;-60
2022/01/18 09:35:31;;;;;;;13.63;7.80;;;;;;;;;;5039616;28;20063;-60
2022/01/18 09:37:57;;;;;;;9.95;7.43;;;;;;;;;;5038112;28;20030;-60
2022/01/18 09:40:23;;;;;;;8.73;7.15;;;;;;;;;;5038242;28;20061;-60
2022/01/18 09:42:54;;;;;;;9.88;8.48;;;;;;;;;;5038233;28;20040;-60
2022/01/18 09:45:22;;;;;;;8.15;7.35;;;;;;;;;;5038524;28;20025;-60
2022/01/18 09:47:49;;;;;;;7.85;6.95;;;;;;;;;;5035176;28;20064;-60
2022/01/18 09:50:18;;;;;;;7.05;6.40;;;;;;;;;;5036834;28;20033;-60
2022/01/18 09:52:50;;;;;;;9.00;7.65;;;;;;;;;;5036727;28;20029;-59
2022/01/18 09:55:16;;;;;;;9.52;7.55;;;;;;;;;;5036221;28;20383;-60
2022/01/18 09:57:41;;;;;;;8.82;7.97;;;;;;;;;;5037101;28;20043;-60
2022/01/18 10:00:07;;;;;;;8.40;7.60;;;;;;;;;;5038308;28;20375;-60
2022/01/18 10:02:33;;;;;;;11.77;7.63;;;;;;;;;;5036460;28;20482;-60
2022/01/18 10:05:00;;;;;;;8.95;7.97;;;;;;;;;;5040885;28;20107;-60
2022/01/18 10:07:33;;;;;;;8.40;6.60;;;;;;;;;;5039937;28;20056;-60
2022/01/18 10:10:00;;;;;;;7.75;6.93;;;;;;;;;;5036171;28;20041;-60
2022/01/18 10:12:25;;;;;;;9.75;7.78;;;;;;;;;;5040124;28;20033;-60
2022/01/18 10:14:54;;;;;;;6.28;5.68;;;;;;;;;;5038398;28;20067;-60
2022/01/18 10:17:28;;;;;;;7.13;6.40;;;;;;;;;;5039298;28;20041;-60
2022/01/18 10:19:53;;;;;;;8.73;6.82;;;;;;;;;;5040671;28;20156;-60
2022/01/18 10:22:25;;;;;;;7.15;6.45;;;;;;;;;;5036447;28;20524;-60
2022/01/18 10:24:52;;;;;;;;;;;;;;;;;;5036983;28;20059;-60
2022/01/18 10:27:17;;;;;;;7.40;6.57;;;;;;;;;;5037538;28;19924;-60
2022/01/18 10:29:50;;;;;;;6.80;5.70;;;;;;;;;;5037642;28;20521;-60
2022/01/18 10:32:22;;;;;;;6.97;6.15;;;;;;;;;;5039101;28;20451;-59
2022/01/18 10:37:20;;;;;;;10.00;7.38;;;;;;;;;;5037474;28;20033;-60
2022/01/18 10:39:53;;;;;;;5.70;5.15;;;;;;;;;;5037561;28;20025;-60
2022/01/18 10:42:32;;;;;;;6.07;5.47;;;;;;;;;;5034951;28;20048;-60
2022/01/18 10:45:04;;;;;;;6.22;5.63;;;;;;;;;;5038030;28;20098;-60
2022/01/18 10:47:31;;;;;;;6.68;6.07;;;;;;;;;;5038778;28;20043;-60
2022/01/18 10:50:05;;;;;;;6.53;5.78;;;;;;;;;;5036473;28;20025;-60
2022/01/18 10:52:30;;;;;;;6.93;6.13;;;;;;;;;;5038471;28;20032;-59
2022/01/18 10:54:58;;;;;;;10.13;7.03;;;;;;;;;;5038757;28;20029;-60
2022/01/18 10:57:33;;;;;;;6.75;6.15;;;;;;;;;;5038660;28;20066;-60
2022/01/18 11:00:07;;;;;;;6.80;5.90;;;;;;;;;;5038073;28;20048;-61
2022/01/18 11:02:38;;;;;;;8.43;6.95;;;;;;;;;;5037560;28;20030;-60
2022/01/18 11:05:19;;;;;;;7.72;5.93;;;;;;;;;;5041225;28;20033;-61
2022/01/18 11:07:46;;;;;;;7.33;6.60;;;;;;;;;;5042197;28;20463;-59
2022/01/18 11:10:13;;;;;;;14.50;8.00;;;;;;;;;;5041644;28;20068;-59
2022/01/18 11:13:02;;;;;;;9.32;6.75;;;;;;;;;;5040921;28;20065;-59
2022/01/18 11:15:28;;;;;;;11.60;8.32;;;;;;;;;;5042755;28;20061;-60
2022/01/18 11:18:00;;;;;;;6.03;5.53;;;;;;;;;;5041586;28;20048;-60
2022/01/18 11:20:29;;;;;;;6.13;5.53;;;;;;;;;;5042673;28;20094;-60
2022/01/18 11:22:55;;;;;;;10.75;6.32;;;;;;;;;;5041472;28;20039;-60
2022/01/18 11:25:22;;;;;;;8.48;5.57;;;;;;;;;;5041322;28;20033;-59
2022/01/18 11:27:50;;;;;;;6.50;5.90;;;;;;;;;;5041270;28;20041;-59
2022/01/18 11:30:21;;;;;;;5.90;5.07;;;;;;;;;;5042652;28;20033;-60
2022/01/18 11:32:50;;;;;;;9.73;6.45;;;;;;;;;;5038554;28;20057;-60
2022/01/18 11:35:25;;;;;;;7.03;6.43;;;;;;;;;;5044745;28;20091;-60
2022/01/18 11:38:21;;;;;;;6.38;5.28;;;;;;;;;;5040751;28;20727;-61
2022/01/18 11:40:55;;;;;;;6.45;5.82;;;;;;;;;;5037812;28;20084;-61
2022/01/18 11:43:40;;;;;;;6.07;5.55;;;;;;;;;;5038124;28;20036;-60
2022/01/18 11:46:24;;;;;;;6.88;6.28;;;;;;;;;;5040529;28;20030;-61
2022/01/18 11:48:59;;;;;;;7.20;6.22;;;;;;;;;;5042215;28;20028;-61
2022/01/18 11:51:37;;;;;;;5.55;5.05;;;;;;;;;;5040969;28;20044;-61
2022/01/18 11:54:33;;;;;;;6.55;5.95;;;;;;;;;;5041610;28;20029;-61
2022/01/18 11:57:00;;;;;;;5.55;5.07;;;;;;;;;;5041232;28;20091;-61
2022/01/18 11:59:35;;;;;;;5.72;5.22;;;;;;;;;;5041386;28;20041;-61
2022/01/18 12:02:03;;;;;;;6.13;5.55;;;;;;;;;;5039121;28;20408;-60
2022/01/18 12:04:54;;;;;;;5.90;4.85;;;;;;;;;;5040408;28;20048;-61
2022/01/18 12:07:36;;;;;;;4.88;4.47;;;;;;;;;;5039677;28;20072;-60
2022/01/18 12:10:20;;;;;;;6.25;5.30;;;;;;;;;;5038134;28;20064;-61
2022/01/18 12:12:46;;;;;;;6.13;5.55;;;;;;;;;;5044619;28;20025;-61
2022/01/18 12:15:24;;;;;;;7.68;4.93;;;;;;;;;;5038196;28;20034;-60
2022/01/18 12:17:58;;;;;;;4.82;3.97;;;;;;;;;;5037769;28;20048;-61
2022/01/18 12:20:32;;;;;;;6.88;4.47;;;;;;;;;;5035838;28;20541;-61
2022/01/18 12:23:27;;;;;;;6.88;4.50;;;;;;;;;;5038709;28;20033;-60
2022/01/18 12:29:19;;;;;;;6.13;5.53;;;;;;;;;;5039673;28;20051;-61
2022/01/18 12:34:34;;;;;;;5.22;4.72;;;;;;;;;;5041860;28;20140;-61
2022/01/18 12:37:10;;;;;;;7.03;4.68;;;;;;;;;;5040553;28;20029;-60
2022/01/18 12:45:33;;;;;;;5.15;4.65;;;;;;;;;;5040094;28;20051;-60
2022/01/18 12:48:02;;;;;;;4.13;3.72;;;;;;;;;;5038150;28;20128;-60
2022/01/18 12:50:32;;;;;;;4.35;3.95;;;;;;;;;;5038615;28;20033;-60
2022/01/18 12:53:05;;;;;;;4.72;4.32;;;;;;;;;;5039817;28;20035;-61
2022/01/18 12:55:37;;;;;;;5.07;4.65;;;;;;;;;;5038028;28;20100;-60
2022/01/18 12:58:13;;;;;;;5.05;4.55;;;;;;;;;;5039007;28;20454;-60
2022/01/18 13:01:01;;;;;;;5.90;5.40;;;;;;;;;;5044976;28;20120;-61
2022/01/18 13:03:33;;;;;;;5.13;4.72;;;;;;;;;;5040983;28;20132;-61
2022/01/18 13:06:00;;;;;;;4.03;3.63;;;;;;;;;;5037039;28;21393;-60
2022/01/18 13:08:29;;;;;;;4.97;4.50;;;;;;;;;;5047727;28;20090;-61
2022/01/18 13:10:55;;;;;;;5.03;4.63;;;;;;;;;;5040327;28;20025;-61
2022/01/18 13:13:28;;;;;;;4.70;4.15;;;;;;;;;;5041532;28;20094;-61
2022/01/18 13:24:25;;;;;;;4.15;3.75;;;;;;;;;;5039969;28;20107;-59
2022/01/18 13:26:46;;;;;;;4.65;4.25;;;;;;;;;;5040377;28;20033;-58
2022/01/18 13:29:23;;;;;;;4.80;4.30;;;;;;;;;;5039745;28;20032;-58
2022/01/18 13:32:13;;;;;;;8.68;4.80;;;;;;;;;;5039776;28;20094;-58
2022/01/18 13:34:40;;;;;;;4.03;3.67;;;;;;;;;;5045932;28;20056;-57
2022/01/18 13:37:08;;;;;;;6.78;5.22;;;;;;;;;;5049930;28;20046;-58
2022/01/18 13:39:55;;;;;;;4.40;4.00;;;;;;;;;;5043788;28;20026;-59
2022/01/18 13:42:29;;;;;;;4.25;3.85;;;;;;;;;;5035391;28;20044;-57
2022/01/18 13:45:12;;;;;;;3.88;3.55;;;;;;;;;;5036244;28;20028;-57
2022/01/18 13:47:47;;;;;;;4.57;4.18;;;;;;;;;;5038834;28;20678;-59
2022/01/18 13:50:34;;;;;;;4.13;3.75;;;;;;;;;;5046853;28;20082;-58
2022/01/18 13:53:02;;;;;;;14.45;4.00;;;;;;;;;;5037819;28;20029;-58
2022/01/18 13:55:30;;;;;;;4.22;3.83;;;;;;;;;;5037787;28;20038;-58
2022/01/18 13:57:56;;;;;;;4.53;4.13;;;;;;;;;;5039084;28;20445;-58
2022/01/18 14:00:24;;;;;;;5.93;4.43;;;;;;;;;;5037594;28;20063;-58
2022/01/18 14:02:49;;;;;;;4.10;3.78;;;;;;;;;;5034759;28;20037;-58
2022/01/18 14:05:17;;;;;;;5.22;3.75;;;;;;;;;;5035103;28;20470;-57
2022/01/18 14:07:43;;;;;;;4.90;4.50;;;;;;;;;;5039387;28;20025;-58
2022/01/18 14:10:08;;;;;;;5.35;4.88;;;;;;;;;;5036325;28;20067;-57
2022/01/18 14:12:34;;;;;;;4.93;4.53;;;;;;;;;;5039857;28;20057;-58
2022/01/18 14:15:00;;;;;;;5.90;5.30;;;;;;;;;;5037968;28;20039;-57
2022/01/18 14:17:26;;;;;;;4.28;3.88;;;;;;;;;;5037884;28;20032;-58
2022/01/18 14:20:05;;;;;;;4.10;3.70;;;;;;;;;;5037070;28;20036;-58
2022/01/18 14:22:35;;;;;;;4.50;4.10;;;;;;;;;;5039061;28;20044;-57
2022/01/18 14:25:05;;;;;;;4.90;4.40;;;;;;;;;;5038416;28;20106;-58
2022/01/18 14:27:37;;;;;;;4.75;4.28;;;;;;;;;;5040507;28;20041;-58
2022/01/18 14:30:04;;;;;;;4.05;3.67;;;;;;;;;;5038658;28;20099;-58
2022/01/18 14:32:33;;;;;;;4.80;4.40;;;;;;;;;;5040130;28;20029;-58
2022/01/18 14:35:07;;;;;;;4.00;3.70;;;;;;;;;;5040240;28;20056;-57
2022/01/18 14:37:37;;;;;;;3.72;3.42;;;;;;;;;;5040489;28;20628;-58
2022/01/18 14:40:26;;;;;;;3.60;3.30;;;;;;;;;;5047836;28;20029;-58
2022/01/18 14:43:01;;;;;;;4.13;3.80;;;;;;;;;;5042184;28;20032;-58
2022/01/18 14:45:38;;;;;;;3.75;3.45;;;;;;;;;;5041488;28;20029;-58
2022/01/18 14:48:08;;;;;;;4.65;3.95;;;;;;;;;;5043765;28;20041;-58
2022/01/18 14:50:35;;;;;;;3.50;3.10;;;;;;;;;;5041903;28;20112;-57
2022/01/18 14:53:00;;;;;;;3.60;3.30;;;;;;;;;;5043130;28;20033;-58
2022/01/18 14:55:27;;;;;;;3.83;3.42;;;;;;;;;;5033418;28;20048;-58
2022/01/18 14:57:54;;;;;;;17.42;12.40;;;;;;;;;;5042291;28;20548;-58
2022/01/18 15:00:21;;;;;;;26.92;14.00;;;;;;;;;;5043488;28;20037;-58
2022/01/18 15:02:47;;;;;;;24.05;12.27;;;;;;;;;;5040170;28;20041;-57
2022/01/18 15:05:13;;;;;;;21.17;7.18;;;;;;;;;;5042593;28;20018;-59
2022/01/18 15:07:40;;;;;;;10.75;5.35;;;;;;;;;;5044496;28;20037;-57
2022/01/18 15:10:07;;;;;;;4.05;3.67;;;;;;;;;;5041659;28;20409;-57
2022/01/18 15:12:33;;;;;;;21.85;11.13;;;;;;;;;;5040781;28;20033;-58
2022/01/18 15:14:59;;;;;;;59.53;23.13;;;;;;;;;;5043165;28;20029;-57
2022/01/18 15:17:24;;;;;;;24.42;10.13;;;;;;;;;;5043047;28;20564;-57
2022/01/18 15:19:50;;;;;;;7.55;6.05;;;;;;;;;;5042738;28;20033;-57
2022/01/18 15:22:15;;;;;;;11.63;5.78;;;;;;;;;;5043330;28;20041;-57
2022/01/18 15:24:41;;;;;;;4.32;3.95;;;;;;;;;;5040751;28;20033;-57
2022/01/18 15:27:06;;;;;;;10.00;9.02;;;;;;;;;;5042157;28;20360;-58
2022/01/18 15:29:32;;;;;;;7.18;6.47;;;;;;;;;;5039732;28;20088;-58
2022/01/18 15:31:59;;;;;;;11.07;7.20;;;;;;;;;;5040711;28;20150;-57
2022/01/18 15:34:26;;;;;;;4.70;4.03;;;;;;;;;;5040725;28;20049;-58
2022/01/18 15:36:51;;;;;;;5.22;4.40;;;;;;;;;;5038974;28;20040;-58
2022/01/18 15:39:17;;;;;;;8.00;6.93;;;;;;;;;;5042201;28;20471;-57
2022/01/18 15:41:43;;;;;;;4.68;4.28;;;;;;;;;;5043254;28;20661;-58
2022/01/18 15:44:09;;;;;;;4.80;4.40;;;;;;;;;;5040468;28;20064;-58
2022/01/18 15:46:37;;;;;;;4.80;4.25;;;;;;;;;;5038267;28;20025;-58
2022/01/18 15:49:04;;;;;;;4.43;4.03;;;;;;;;;;5042904;28;20024;-58
2022/01/18 15:51:30;;;;;;;3.67;3.38;;;;;;;;;;5040902;28;20029;-58
2022/01/18 15:53:56;;;;;;;3.95;3.65;;;;;;;;;;5040742;28;20857;-57
2022/01/18 15:56:21;;;;;;;4.03;3.63;;;;;;;;;;5038780;28;20053;-58
2022/01/18 15:58:47;;;;;;;4.65;4.25;;;;;;;;;;5038114;28;20052;-58
2022/01/18 16:01:12;;;;;;;5.38;4.90;;;;;;;;;;5038942;28;20052;-57
2022/01/18 16:03:37;;;;;;;5.10;4.32;;;;;;;;;;5039054;28;20039;-58
2022/01/18 16:06:04;;;;;;;3.58;3.28;;;;;;;;;;5036700;28;20040;-57
2022/01/18 16:08:29;;;;;;;3.50;3.20;;;;;;;;;;5040326;28;20033;-58
2022/01/18 16:10:55;;;;;;;3.30;3.00;;;;;;;;;;5039658;28;20057;-58
2022/01/18 16:13:21;;;;;;;3.53;3.22;;;;;;;;;;5041653;28;20091;-57
2022/01/18 16:15:46;;;;;;;4.10;3.75;;;;;;;;;;5040346;28;20049;-58
2022/01/18 16:18:12;;;;;;;3.35;3.05;;;;;;;;;;5039374;28;20042;-58